• Join FlightAware (Why Join?)
  • Login
  • US Flag 
Gobble Gobble! 
07:39PM EST


 

Airport Tracker/Info


-or-


 

Live Flight TrackerFlight Track Log ✈ DAL268 ✈ 20-Aug-2013 ✈ KSFO - KJFK

Flight Track Log - Related Links

Times and Time Zones

All times are in EDT time to prevent confusion due to time zone crossing. See the DAL268 flight status page for this flight to view local times or setup timezone preferences in your user account.

Time Position Orientation Groundspeed Altitude Reporting Facility
EDT Latitude Longitude Course Direction KTS MPH feet Rate Location/Type
03:12PM 37.6060 -122.3820 142° Southeast  Level FlightAware
03:16PM 37.8354 -122.1480 38° Northeast  Level FlightAware Approximate
03:16PM 37.6130 -122.3770 28° Northeast 115 132  Level FlightAware
03:16PM 37.6318 -122.3640 29° Northeast 165 190 800 1,680 Climbing FlightAware ADS-B
03:16PM 37.6395 -122.3560 39° Northeast 174 200 1,200 1,740 Climbing FlightAware ADS-B
03:17PM 37.6463 -122.3480 43° Northeast 189 217 1,500 1,260 Climbing FlightAware ADS-B
03:17PM 37.6545 -122.3370 47° Northeast 209 241 1,700 1,080 Climbing FlightAware ADS-B
03:17PM 37.6655 -122.3240 43° Northeast 236 272 2,000 1,380 Climbing FlightAware ADS-B
03:17PM 37.6783 -122.3090 43° Northeast 257 296 2,400 1,800 Climbing FlightAware ADS-B
03:18PM 37.6886 -122.2960 45° Northeast 269 310 2,800 2,640 Climbing FlightAware ADS-B
03:18PM 37.7021 -122.2800 43° Northeast 272 313 3,600 2,640 Climbing FlightAware ADS-B
03:18PM 37.7216 -122.2580 42° Northeast 281 323 4,400 2,880 Climbing FlightAware ADS-B
03:18PM 37.7433 -122.2370 37° Northeast 279 321 5,600 2,880 Climbing FlightAware ADS-B
03:19PM 37.7659 -122.2150 38° Northeast 281 323 6,500 2,460 Climbing FlightAware ADS-B
03:19PM 37.7838 -122.1980 37° Northeast 287 330 7,200 2,520 Climbing FlightAware ADS-B
03:19PM 37.8002 -122.1820 38° Northeast 290 334 7,900 2,700 Climbing FlightAware ADS-B
03:20PM 37.8165 -122.1660 38° Northeast 291 335 8,600 2,700 Climbing FlightAware ADS-B
03:20PM 37.8344 -122.1490 37° Northeast 294 338 9,300 2,460 Climbing FlightAware ADS-B
03:20PM 37.8505 -122.1330 38° Northeast 299 344 9,900 1,800 Climbing FlightAware ADS-B
03:21PM 37.8782 -122.1060 38° Northeast 318 366 10,500 1,260 Climbing FlightAware ADS-B
03:21PM 37.9172 -122.0690 37° Northeast 350 403 11,100 1,440 Climbing FlightAware ADS-B
03:22PM 37.9585 -122.0290 37° Northeast 366 421 12,000 1,320 Climbing FlightAware ADS-B
03:22PM 38.0007 -121.9870 38° Northeast 392 451 12,500 1,320 Climbing FlightAware ADS-B
03:23PM 38.0900 -121.9020 37° Northeast 422 486 14,000 1,500 Climbing FlightAware
03:24PM 38.1321 -121.8590 39° Northeast 430 495 14,700 1,560 Climbing FlightAware ADS-B
03:24PM 38.1980 -121.7930 38° Northeast 445 512 15,800 1,620 Climbing FlightAware
03:25PM 38.2560 -121.7360 38° Northeast 456 525 16,800 1,620 Climbing FlightAware
03:25PM 38.3120 -121.6810 38° Northeast 462 532 17,700 1,620 Climbing FlightAware
03:26PM 38.3720 -121.6220 38° Northeast 469 540 18,700 1,620 Climbing FlightAware
03:27PM 38.4370 -121.5540 39° Northeast 474 545 19,700 1,500 Climbing FlightAware
03:27PM 38.4860 -121.4810 49° Northeast 478 550 20,500 1,500 Climbing FlightAware
03:28PM 38.5148 -121.4320 53° Northeast 479 551 21,100 1,440 Climbing FlightAware ADS-B
03:28PM 38.5780 -121.3210 54° Northeast 488 562 22,200 1,380 Climbing FlightAware
03:29PM 38.6255 -121.2400 53° Northeast 491 565 23,000 1,320 Climbing FlightAware ADS-B
03:30PM 38.6820 -121.1430 53° Northeast 497 572 23,900 1,200 Climbing FlightAware
03:30PM 38.7300 -121.0590 54° Northeast 500 575 24,600 1,080 Climbing FlightAware
03:31PM 38.7820 -120.9690 53° Northeast 505 581 25,200 1,200 Climbing FlightAware
03:31PM 38.8260 -120.8920 54° Northeast 504 580 26,000 1,380 Climbing FlightAware
03:32PM 38.8660 -120.8230 53° Northeast 501 577 26,700 1,380 Climbing FlightAware
03:33PM 38.9220 -120.7250 54° Northeast 499 574 27,700 1,440 Climbing FlightAware
03:33PM 38.9740 -120.6360 53° Northeast 497 572 28,600 1,320 Climbing FlightAware
03:34PM 39.0200 -120.5570 53° Northeast 497 572 29,300 1,440 Climbing FlightAware
03:34PM 39.0690 -120.4710 54° Northeast 493 567 30,300 1,440 Climbing FlightAware
03:35PM 39.1150 -120.3910 53° Northeast 494 568 31,000 1,200 Climbing FlightAware
03:35PM 39.1630 -120.3080 53° Northeast 493 567 31,700 1,200 Climbing FlightAware
03:36PM 39.2060 -120.2330 53° Northeast 490 564 32,400 1,200 Climbing FlightAware
03:37PM 39.2570 -120.1420 54° Northeast 490 564 33,100 1,020 Climbing FlightAware
03:37PM 39.3030 -120.0620 53° Northeast 490 564 33,700 960 Climbing FlightAware
03:38PM 39.3530 -119.9730 54° Northeast 488 562 34,300 900 Climbing FlightAware
03:38PM 39.3960 -119.8970 54° Northeast 488 562 34,800 600 Climbing FlightAware
03:39PM 39.4440 -119.8120 54° Northeast 488 562 35,000 120 Climbing FlightAware
03:40PM 39.4900 -119.7290 54° Northeast 486 559 35,000  Level FlightAware
03:40PM 39.5320 -119.6490 56° Northeast 485 558 35,000  Level FlightAware
03:41PM 39.5700 -119.5600 61° Northeast 487 560 35,000  Level FlightAware
03:41PM 39.6060 -119.4690 63° Northeast 487 560 35,000  Level FlightAware
03:42PM 39.6440 -119.3710 63° Northeast 487 560 35,000  Level FlightAware
03:42PM 39.6770 -119.2880 63° Northeast 487 560 35,000  Level FlightAware
03:43PM 39.7140 -119.1920 63° Northeast 488 562 35,000  Level FlightAware
03:44PM 39.7480 -119.1060 63° Northeast 490 564 35,000  Level FlightAware
03:44PM 39.7870 -119.0040 64° Northeast 489 563 35,000  Level FlightAware
03:45PM 39.8200 -118.9200 63° Northeast 489 563 35,000 240 Level FlightAware
03:45PM 39.8570 -118.8250 63° Northeast 487 560 35,300 720 Climbing FlightAware
03:46PM 39.8930 -118.7320 63° Northeast 484 557 35,900 900 Climbing FlightAware
03:47PM 39.9290 -118.6380 63° Northeast 482 555 36,400 840 Climbing FlightAware
03:47PM 39.9630 -118.5500 63° Northeast 482 555 36,900 480 Climbing FlightAware
03:48PM 39.9970 -118.4600 64° Northeast 481 554 37,000 60 Climbing FlightAware
03:48PM 40.0320 -118.3690 63° Northeast 476 548 37,000  Level FlightAware
03:49PM 40.0650 -118.2810 64° Northeast 474 545 37,000  Level FlightAware
03:49PM 40.1000 -118.1900 63° Northeast 473 544 37,000  Level FlightAware
03:50PM 40.1300 -118.1090 64° Northeast 472 543 37,000  Level FlightAware
03:51PM 40.1650 -118.0180 63° Northeast 472 543 37,000  Level FlightAware
03:51PM 40.1980 -117.9320 63° Northeast 473 544 37,000  Level FlightAware
03:52PM 40.2290 -117.8520 63° Northeast 473 544 37,000  Level FlightAware
03:52PM 40.2600 -117.7710 63° Northeast 473 544 37,000  Level FlightAware
03:53PM 40.2910 -117.6930 62° Northeast 473 544 37,000  Level FlightAware
03:54PM 40.3190 -117.6190 64° Northeast 473 544 37,000  Level FlightAware
03:54PM 40.3500 -117.5410 62° Northeast 473 544 37,000  Level FlightAware
03:55PM 40.3800 -117.4630 63° Northeast 473 544 37,000  Level FlightAware
03:55PM 40.4100 -117.3840 63° Northeast 473 544 37,000  Level FlightAware
03:56PM 40.4410 -117.3060 62° Northeast 473 544 37,000  Level FlightAware
03:57PM 40.4710 -117.2280 63° Northeast 473 544 37,000  Level FlightAware
03:57PM 40.5020 -117.1470 63° Northeast 473 544 37,000  Level FlightAware
03:58PM 40.5330 -117.0680 63° Northeast 473 544 37,000  Level FlightAware
03:58PM 40.5630 -116.9900 63° Northeast 473 544 37,000  Level FlightAware
03:59PM 40.5940 -116.9110 63° Northeast 473 544 37,000  Level FlightAware
04:00PM 40.6250 -116.8310 63° Northeast 473 544 37,000  Level FlightAware
04:00PM 40.6550 -116.7520 63° Northeast 473 544 37,000  Level FlightAware
04:02PM 40.7536 -116.2400 76° East 473 544 37,000  Level FlightAware ADS-B
04:02PM 40.7754 -116.1580 71° East 473 544 37,000  Level FlightAware ADS-B
04:03PM 40.8005 -116.0630 71° East 474 545 37,000  Level FlightAware ADS-B
04:03PM 40.8235 -115.9770 71° East 474 545 37,000  Level FlightAware ADS-B
04:04PM 40.8460 -115.8910 71° East 474 545 37,000  Level FlightAware ADS-B
04:05PM 40.8689 -115.8040 71° East 475 547 37,000  Level FlightAware ADS-B
04:08PM 41.0022 -115.2900 71° East 481 554 37,000  Level FlightAware ADS-B
04:08PM 41.0262 -115.1960 71° East 482 555 37,000  Level FlightAware ADS-B
04:09PM 41.0486 -115.1090 71° East 484 557 37,000  Level FlightAware ADS-B
04:09PM 41.0715 -115.0180 72° East 484 557 37,000  Level FlightAware ADS-B
04:10PM 41.0974 -114.9160 71° East 484 557 37,000  Level FlightAware ADS-B
04:11PM 41.1544 -114.6890 71° East 486 559 37,000  Level FlightAware ADS-B
04:12PM 41.1812 -114.5820 72° East 486 559 37,000  Level FlightAware ADS-B
04:12PM 41.2024 -114.4970 72° East 486 559 37,000  Level FlightAware ADS-B
04:13PM 41.2236 -114.4110 72° East 486 559 37,000  Level FlightAware ADS-B
04:13PM 41.2448 -114.3250 72° East 486 559 37,000  Level FlightAware ADS-B
04:14PM 41.2672 -114.2340 72° East 486 559 37,000  Level FlightAware ADS-B
04:15PM 41.2984 -114.1060 72° East 487 560 37,000  Level FlightAware ADS-B
04:15PM 41.3194 -114.0210 72° East 489 563 37,000  Level FlightAware ADS-B
04:16PM 41.3401 -113.9350 72° East 490 564 37,000  Level FlightAware ADS-B
04:16PM 41.3505 -113.8910 73° East 489 563 37,000  Level FlightAware ADS-B
04:16PM 41.3593 -113.8430 76° East 488 562 37,000  Level FlightAware ADS-B
04:17PM 41.3692 -113.7530 82° East 486 559 37,000  Level FlightAware ADS-B
04:17PM 41.3756 -113.6620 85° East 486 559 37,000  Level FlightAware ADS-B
04:18PM 41.3818 -113.5650 85° East 488 562 37,000  Level FlightAware ADS-B
04:18PM 41.3882 -113.4640 85° East 490 564 37,000  Level FlightAware ADS-B
04:19PM 41.3957 -113.3440 85° East 491 565 37,000  Level FlightAware ADS-B
04:19PM 41.4016 -113.2500 85° East 491 565 37,000  Level FlightAware ADS-B
04:20PM 41.4081 -113.1470 85° East 489 563 37,000  Level FlightAware ADS-B
04:21PM 41.4137 -113.0570 85° East 487 560 37,000  Level FlightAware ADS-B
04:21PM 41.4193 -112.9660 85° East 487 560 37,000  Level FlightAware ADS-B
04:22PM 41.4259 -112.8570 85° East 488 562 37,000  Level FlightAware ADS-B
04:22PM 41.4317 -112.7580 85° East 488 562 37,000  Level FlightAware ADS-B
04:23PM 41.4377 -112.6550 86° East 488 562 37,000  Level FlightAware ADS-B
04:23PM 41.4436 -112.5510 86° East 487 560 37,000  Level FlightAware ADS-B
04:24PM 41.4489 -112.4590 86° East 487 560 37,000  Level FlightAware ADS-B
04:24PM 41.4539 -112.3690 86° East 487 560 37,000  Level FlightAware ADS-B
04:25PM 41.4601 -112.2560 86° East 488 562 37,000  Level FlightAware ADS-B
04:26PM 41.4654 -112.1590 86° East 488 562 37,000  Level FlightAware ADS-B
04:26PM 41.4703 -112.0660 86° East 489 563 37,000  Level FlightAware ADS-B
04:26PM 41.4726 -112.0150 87° East 489 563 37,000  Level FlightAware ADS-B
04:27PM 41.4722 -111.9850 91° East 487 560 37,000  Level FlightAware ADS-B
04:27PM 41.4680 -111.9230 95° East 485 558 37,000  Level FlightAware ADS-B
04:27PM 41.4586 -111.8340 98° East 484 557 37,000  Level FlightAware ADS-B
04:28PM 41.4490 -111.7430 98° East 485 558 37,000  Level FlightAware ADS-B
04:28PM 41.4397 -111.6510 98° East 485 558 37,000  Level FlightAware ADS-B
04:29PM 41.4306 -111.5620 98° East 485 558 37,000  Level FlightAware ADS-B
04:29PM 41.4202 -111.4620 98° East 484 557 37,000  Level FlightAware ADS-B
04:30PM 41.4162 -111.4110 96° East 485 558 37,000  Level FlightAware ADS-B
04:30PM 41.4155 -111.3560 91° East 488 562 37,000  Level FlightAware ADS-B
04:30PM 41.4177 -111.3080 86° East 490 564 37,000  Level FlightAware ADS-B
04:31PM 41.4261 -111.2170 83° East 491 565 37,000  Level FlightAware ADS-B
04:31PM 41.4342 -111.1260 83° East 489 563 37,000  Level FlightAware ADS-B
04:32PM 41.4429 -111.0310 83° East 490 564 37,000  Level FlightAware ADS-B
04:32PM 41.4516 -110.9350 83° East 489 563 37,000  Level FlightAware ADS-B
04:33PM 41.4613 -110.8300 83° East 487 560 37,000  Level FlightAware ADS-B
04:34PM 41.4760 -110.6650 83° East 486 559 37,000  Level FlightAware
04:35PM 41.4900 -110.5190 83° East 487 560 37,000  Level FlightAware
04:35PM 41.4980 -110.4280 83° East 487 560 37,000  Level FlightAware
04:36PM 41.5060 -110.3420 83° East 487 560 37,000  Level FlightAware
04:37PM 41.5140 -110.2500 83° East 487 560 37,000  Level FlightAware
04:37PM 41.5230 -110.1590 82° East 487 560 37,000  Level FlightAware
04:38PM 41.5310 -110.0650 83° East 487 560 37,000  Level FlightAware
04:38PM 41.5400 -109.9730 83° East 487 560 37,000  Level FlightAware
04:39PM 41.5480 -109.8820 83° East 487 560 37,000  Level FlightAware
04:40PM 41.5560 -109.7910 83° East 487 560 37,000  Level FlightAware
04:40PM 41.5650 -109.6990 83° East 487 560 37,000  Level FlightAware
04:41PM 41.5730 -109.6130 83° East 487 560 37,000  Level FlightAware
04:41PM 41.5810 -109.5210 83° East 487 560 37,000  Level FlightAware
04:42PM 41.5900 -109.4250 83° East 487 560 37,000  Level FlightAware
04:43PM 41.5990 -109.3280 83° East 487 560 37,000  Level FlightAware
04:43PM 41.6070 -109.2370 83° East 487 560 37,000  Level FlightAware
04:44PM 41.6160 -109.1400 83° East 487 560 37,000  Level FlightAware
04:44PM 41.6306 -108.7856 83° East 501 577 37,000  Level Denver Center
04:45PM 41.6364 -108.6989 85° East 498 573 37,000  Level Salt Lake Center
04:46PM 41.6497 -108.4914 85° East 501 577 37,000  Level Salt Lake Center
04:47PM 41.6628 -108.3136 84° East 501 577 37,000  Level Salt Lake Center
04:48PM 41.6772 -108.1067 85° East 501 577 37,000  Level Salt Lake Center
04:49PM 41.6892 -107.9292 85° East 501 577 37,000  Level Salt Lake Center
04:50PM 41.7028 -107.7242 85° East 497 572 37,000  Level Salt Lake Center
04:51PM 41.7147 -107.5472 85° East 498 573 37,000  Level Salt Lake Center
04:57PM 41.7780 -106.4330 85° East 505 581 37,000  Level FlightAware
04:58PM 41.7840 -106.3140 86° East 504 580 37,000  Level FlightAware
04:58PM 41.7890 -106.2000 87° East 504 580 37,000  Level FlightAware
04:59PM 41.7950 -106.1000 85° East 506 582 37,000  Level FlightAware
04:59PM 41.8000 -105.9900 86° East 507 583 37,000  Level FlightAware
05:00PM 41.8050 -105.8760 87° East 508 585 37,000  Level FlightAware
05:01PM 41.8110 -105.7600 86° East 507 583 37,000  Level FlightAware
05:01PM 41.8160 -105.6570 86° East 508 585 37,000  Level FlightAware
05:02PM 41.8200 -105.5540 87° East 507 583 37,000  Level FlightAware
05:02PM 41.8250 -105.4390 87° East 506 582 37,000  Level FlightAware
05:03PM 41.8300 -105.3370 86° East 506 582 37,000  Level FlightAware
05:04PM 41.8350 -105.2130 87° East 505 581 37,000  Level FlightAware
05:04PM 41.8398 -105.0960 87° East 507 583 37,000  Level FlightAware ADS-B
05:05PM 41.8437 -105.0010 87° East 506 582 37,000  Level FlightAware ADS-B
05:05PM 41.8474 -104.9060 87° East 507 583 37,000  Level FlightAware ADS-B
05:06PM 41.8512 -104.8090 87° East 507 583 37,000  Level FlightAware ADS-B
05:06PM 41.8548 -104.7150 87° East 507 583 37,000  Level FlightAware ADS-B
05:07PM 41.8582 -104.6210 87° East 507 583 37,000  Level FlightAware ADS-B
05:07PM 41.8621 -104.5140 87° East 506 582 37,000  Level FlightAware ADS-B
05:08PM 41.8653 -104.4210 87° East 505 581 37,000  Level FlightAware ADS-B
05:08PM 41.8690 -104.3140 87° East 505 581 37,000  Level FlightAware ADS-B
05:09PM 41.8725 -104.2090 87° East 504 580 37,000  Level FlightAware ADS-B
05:09PM 41.8756 -104.1150 87° East 504 580 37,000  Level FlightAware ADS-B
05:10PM 41.8786 -104.0210 88° East 503 579 37,000  Level FlightAware ADS-B
05:10PM 41.8817 -103.9190 88° East 503 579 37,000  Level FlightAware ADS-B
05:11PM 41.8846 -103.8240 88° East 502 578 37,000  Level FlightAware ADS-B
05:11PM 41.8874 -103.7280 88° East 502 578 37,000  Level FlightAware ADS-B
05:12PM 41.8900 -103.6350 88° East 501 577 37,000 180 Level FlightAware ADS-B
05:13PM 41.8938 -103.5220 87° East 501 577 37,200 600 Climbing FlightAware ADS-B
05:13PM 41.9023 -103.4270 83° East 497 572 37,700 960 Climbing FlightAware ADS-B
05:14PM 41.9148 -103.3340 80° East 495 570 38,200 720 Climbing FlightAware ADS-B
05:14PM 41.9279 -103.2410 79° East 495 570 38,500 540 Climbing FlightAware ADS-B
05:15PM 41.9412 -103.1470 79° East 495 570 38,800 480 Climbing FlightAware ADS-B
05:15PM 41.9542 -103.0540 79° East 495 570 39,000 60 Climbing FlightAware ADS-B
05:16PM 41.9681 -102.9530 79° East 493 567 38,900 -660 Descending FlightAware ADS-B
05:16PM 41.9816 -102.8550 79° East 496 571 38,300 -960 Descending FlightAware ADS-B
05:17PM 41.9941 -102.7630 80° East 497 572 37,900 -1,920 Descending FlightAware ADS-B
05:18PM 42.0152 -102.6070 80° East 497 572 35,700 -2,880 Descending FlightAware ADS-B
05:18PM 42.0298 -102.4980 80° East 504 580 33,800 -2,940 Descending FlightAware ADS-B
05:19PM 42.0389 -102.4258 80° East 506 582 32,500 -1,860 Descending Denver Center
05:20PM 42.0656 -102.2164 80° East 510 587 31,000 -780 Descending Denver Center
05:21PM 42.0908 -102.0433 79° East 510 587 31,000  Level Denver Center
05:22PM 42.1169 -101.8350 80° East 504 580 31,000  Level Denver Center
05:23PM 42.1400 -101.6542 80° East 510 587 31,000  Level Denver Center
05:24PM 42.1647 -101.4453 81° East 506 582 31,000  Level Denver Center
05:25PM 42.1881 -101.2625 80° East 510 587 31,000  Level Denver Center
05:26PM 42.2092 -101.0828 81° East 508 585 31,000  Level Denver Center
05:27PM 42.2344 -100.8736 81° East 504 580 31,000  Level Denver Center
05:28PM 42.2544 -100.6942 81° East 505 581 31,000  Level Denver Center
05:29PM 42.2792 -100.4856 81° East 504 580 31,000  Level Denver Center
05:30PM 42.2967 -100.3253 82° East 506 582 31,000  Level Minneapolis Center
05:31PM 42.3183 -100.1364 81° East 508 585 31,000  Level Minneapolis Center
05:32PM 42.3389 -99.9478 82° East 506 582 31,000  Level Minneapolis Center
05:33PM 42.3639 -99.7192 82° East 509 586 31,000  Level Minneapolis Center
05:34PM 42.3842 -99.5283 82° East 511 588 31,000  Level Minneapolis Center
05:35PM 42.4053 -99.3389 81° East 510 587 31,000  Level Minneapolis Center
05:36PM 42.4253 -99.1500 82° East 508 585 31,000  Level Minneapolis Center
05:37PM 42.4439 -98.9600 82° East 508 585 31,000  Level Minneapolis Center
05:38PM 42.4628 -98.7711 82° East 505 581 31,000  Level Minneapolis Center
05:39PM 42.4792 -98.5811 83° East 506 582 31,000  Level Minneapolis Center
05:40PM 42.5319 -98.3672 71° East 499 574 31,000  Level Minneapolis Center
05:41PM 42.5733 -98.1889 72° East 497 572 31,000  Level Minneapolis Center
05:47PM 42.6280 -97.0680 72° East 500 575 31,000  Level FlightAware
05:48PM 42.6310 -96.9590 88° East 500 575 31,000  Level FlightAware
05:49PM 42.6340 -96.8290 88° East 500 575 31,000  Level FlightAware
05:49PM 42.6370 -96.7220 88° East 500 575 31,000  Level FlightAware
05:50PM 42.6390 -96.5960 89° East 501 577 31,000  Level FlightAware
05:51PM 42.6430 -96.4330 88° East 500 575 31,000  Level FlightAware
05:51PM 42.6450 -96.3350 88° East 500 575 31,000  Level FlightAware
05:52PM 42.6470 -96.2170 89° East 501 577 31,000  Level FlightAware
05:52PM 42.6490 -96.1010 89° East 501 577 31,000  Level FlightAware
05:53PM 42.6520 -95.9260 89° East 501 577 31,000  Level FlightAware
05:54PM 42.6530 -95.8240 89° East 501 577 31,000  Level FlightAware
05:55PM 42.6550 -95.7120 89° East 501 577 31,000  Level FlightAware
05:55PM 42.6560 -95.6010 89° East 502 578 31,000  Level FlightAware
05:56PM 42.6580 -95.4830 89° East 502 578 31,000  Level FlightAware
05:56PM 42.6590 -95.3830 89° East 502 578 31,000  Level FlightAware
05:57PM 42.6600 -95.2750 89° East 501 577 31,000  Level FlightAware
05:57PM 42.6610 -95.1640 89° East 500 575 31,000  Level FlightAware
05:58PM 42.6620 -95.0550 89° East 500 575 31,000  Level FlightAware
05:59PM 42.6630 -94.9400 89° East 498 573 31,000  Level FlightAware
05:59PM 42.6630 -94.8280 90° East 497 572 31,000  Level FlightAware
06:00PM 42.6640 -94.7310 89° East 496 571 31,000  Level FlightAware
06:00PM 42.6640 -94.6230 90° East 496 571 31,000  Level FlightAware
06:01PM 42.6650 -94.5070 89° East 496 571 31,000  Level FlightAware
06:01PM 42.6650 -94.4050 90° East 495 570 31,000  Level FlightAware
06:02PM 42.6650 -94.2880 90° East 495 570 31,000  Level FlightAware
06:03PM 42.6650 -94.1940 90° East 495 570 31,000  Level FlightAware
06:03PM 42.6650 -94.0750 90° East 495 570 31,000  Level FlightAware
06:04PM 42.6650 -93.9660 90° East 494 568 31,000  Level FlightAware
06:04PM 42.6650 -93.8530 90° East 494 568 31,000  Level FlightAware
06:05PM 42.6650 -93.7540 90° East 493 567 31,000  Level FlightAware
06:06PM 42.6640 -93.6520 91° East 492 566 31,000  Level FlightAware
06:06PM 42.6640 -93.5390 90° East 492 566 31,000  Level FlightAware
06:07PM 42.6630 -93.4330 91° East 491 565 31,000  Level FlightAware
06:08PM 42.6640 -93.2810 89° East 489 563 31,000  Level FlightAware
06:08PM 42.6670 -93.1690 88° East 489 563 31,000  Level FlightAware
06:09PM 42.6690 -93.0550 89° East 489 563 31,000  Level FlightAware
06:09PM 42.6710 -92.9560 88° East 489 563 31,000  Level FlightAware
06:10PM 42.6730 -92.8450 89° East 489 563 31,000  Level FlightAware
06:10PM 42.6740 -92.7430 89° East 489 563 31,000  Level FlightAware
06:11PM 42.6750 -92.6310 89° East 488 562 31,000  Level FlightAware
06:12PM 42.6770 -92.5200 89° East 487 560 31,000  Level FlightAware
06:12PM 42.6780 -92.4310 89° East 486 559 31,000  Level FlightAware
06:13PM 42.6790 -92.3260 89° East 486 559 31,000  Level FlightAware
06:13PM 42.6800 -92.1980 89° East 486 559 31,000  Level FlightAware
06:14PM 42.6810 -92.1020 89° East 485 558 31,000  Level FlightAware
06:15PM 42.6820 -91.9940 89° East 484 557 31,000  Level FlightAware
06:15PM 42.6830 -91.8780 89° East 484 557 31,000  Level FlightAware
06:16PM 42.6840 -91.7760 89° East 484 557 31,000  Level FlightAware
06:16PM 42.6840 -91.6720 90° East 484 557 31,000  Level FlightAware
06:17PM 42.6850 -91.5630 89° East 483 556 31,000  Level FlightAware
06:18PM 42.6850 -91.4590 90° East 482 555 31,000  Level FlightAware
06:18PM 42.6860 -91.3580 89° East 482 555 31,000  Level FlightAware
06:19PM 42.6860 -91.2590 90° East 480 552 31,000  Level FlightAware
06:19PM 42.6860 -91.1410 90° East 479 551 31,000  Level FlightAware
06:20PM 42.6860 -91.0320 90° East 478 550 31,000  Level FlightAware
06:20PM 42.6860 -90.9240 90° East 477 549 31,000  Level FlightAware
06:21PM 42.6860 -90.8360 90° East 475 547 31,000  Level FlightAware
06:22PM 42.6850 -90.7290 91° East 474 545 31,000  Level FlightAware
06:22PM 42.6850 -90.6210 90° East 474 545 31,000  Level FlightAware
06:23PM 42.6850 -90.5220 90° East 473 544 31,000  Level FlightAware
06:23PM 42.6840 -90.4120 91° East 472 543 31,000  Level FlightAware
06:24PM 42.6830 -90.3130 91° East 473 544 31,000  Level FlightAware
06:25PM 42.6830 -90.2100 90° East 472 543 31,000  Level FlightAware
06:25PM 42.6820 -90.0990 91° East 473 544 31,000  Level FlightAware
06:26PM 42.6810 -89.9970 91° East 474 545 31,000  Level FlightAware
06:26PM 42.6800 -89.9080 91° East 473 544 31,000  Level FlightAware
06:27PM 42.6790 -89.7920 91° East 473 544 31,000  Level FlightAware
06:27PM 42.6770 -89.6900 91° East 473 544 31,000  Level FlightAware
06:28PM 42.6760 -89.5830 91° East 474 545 31,000  Level FlightAware
06:29PM 42.6750 -89.4830 91° East 474 545 31,000  Level FlightAware
06:29PM 42.6730 -89.3810 91° East 473 544 31,000  Level FlightAware
06:30PM 42.6720 -89.2710 91° East 472 543 31,000  Level FlightAware
06:30PM 42.6700 -89.1620 91° East 471 542 31,000  Level FlightAware
06:31PM 42.6680 -89.0640 92° East 470 541 31,000  Level FlightAware
06:32PM 42.6660 -88.9560 91° East 470 541 31,000  Level FlightAware
06:32PM 42.6640 -88.8520 91° East 470 541 31,000  Level FlightAware
06:33PM 42.6620 -88.7580 92° East 470 541 31,000  Level FlightAware
06:33PM 42.6600 -88.6510 91° East 470 541 31,000  Level FlightAware
06:34PM 42.6580 -88.5390 91° East 470 541 31,000  Level FlightAware
06:34PM 42.6560 -88.4500 92° East 470 541 31,000  Level FlightAware
06:35PM 42.6530 -88.3400 92° East 469 540 31,000  Level FlightAware
06:36PM 42.6510 -88.2350 91° East 469 540 31,000  Level FlightAware
06:36PM 42.6490 -88.1510 92° East 468 539 31,000  Level FlightAware
06:37PM 42.6450 -88.0330 93° East 468 539 31,000  Level FlightAware
06:37PM 42.6430 -87.9250 91° East 468 539 31,000  Level FlightAware
06:38PM 42.6400 -87.8350 93° East 468 539 31,000  Level FlightAware
06:39PM 42.6370 -87.7300 92° East 468 539 31,000  Level FlightAware
06:39PM 42.6340 -87.6240 92° East 469 540 31,000  Level FlightAware
06:40PM 42.6310 -87.5300 92° East 469 540 31,000  Level FlightAware
06:40PM 42.6280 -87.4200 92° East 470 541 31,000  Level FlightAware
06:41PM 42.6240 -87.3160 93° East 470 541 31,000  Level FlightAware
06:41PM 42.6210 -87.2070 92° East 470 541 31,000  Level FlightAware
06:42PM 42.6170 -87.1150 93° East 470 541 31,000  Level FlightAware
06:43PM 42.6140 -87.0080 92° East 470 541 31,000  Level FlightAware
06:43PM 42.6100 -86.9040 93° East 470 541 31,000  Level FlightAware
06:44PM 42.6070 -86.8150 93° East 470 541 31,000  Level FlightAware
06:44PM 42.6020 -86.7010 93° East 471 542 31,000  Level FlightAware
06:45PM 42.5980 -86.5910 93° East 472 543 31,000  Level FlightAware
06:46PM 42.5940 -86.4860 93° East 473 544 31,000  Level FlightAware
06:46PM 42.5900 -86.3860 93° East 473 544 31,000  Level FlightAware
06:47PM 42.5850 -86.2760 93° East 473 544 31,000  Level FlightAware
06:47PM 42.5810 -86.1820 93° East 474 545 31,000  Level FlightAware
06:48PM 42.5770 -86.0740 93° East 474 545 31,000  Level FlightAware
06:48PM 42.5720 -85.9690 94° East 475 547 31,000  Level FlightAware
06:49PM 42.5670 -85.8610 94° East 474 545 31,000  Level FlightAware
06:50PM 42.5620 -85.7550 94° East 474 545 31,000  Level FlightAware
06:50PM 42.5580 -85.6600 93° East 474 545 31,000  Level FlightAware
06:51PM 42.5530 -85.5530 94° East 476 548 31,000  Level FlightAware
06:51PM 42.5470 -85.4460 94° East 476 548 31,000  Level FlightAware
06:52PM 42.5430 -85.3530 93° East 477 549 31,000  Level FlightAware
06:53PM 42.5370 -85.2430 94° East 477 549 31,000  Level FlightAware
06:53PM 42.5320 -85.1360 94° East 478 550 31,000  Level FlightAware
06:54PM 42.5260 -85.0310 94° East 478 550 31,000  Level FlightAware
06:54PM 42.5190 -84.9050 94° East 479 551 31,000  Level FlightAware
06:55PM 42.5140 -84.7970 94° East 480 552 31,000  Level FlightAware
06:56PM 42.5070 -84.6750 94° East 481 554 31,000  Level FlightAware
06:56PM 42.5010 -84.5680 94° East 482 555 31,000  Level FlightAware
06:57PM 42.4950 -84.4710 95° East 483 556 31,000  Level FlightAware
06:57PM 42.4880 -84.3580 95° East 484 557 31,000  Level FlightAware
06:58PM 42.4820 -84.2520 94° East 485 558 31,000  Level FlightAware
06:59PM 42.4760 -84.1430 94° East 485 558 31,000  Level FlightAware
06:59PM 42.4700 -84.0470 95° East 486 559 31,000  Level FlightAware
07:00PM 42.4630 -83.9360 95° East 487 560 31,000  Level FlightAware
07:00PM 42.4560 -83.8260 95° East 488 562 31,000  Level FlightAware
07:01PM 42.4490 -83.7260 95° East 489 563 31,000  Level FlightAware
07:02PM 42.4420 -83.6160 95° East 489 563 31,000  Level FlightAware
07:02PM 42.4350 -83.5050 95° East 491 565 31,000  Level FlightAware
07:03PM 42.4290 -83.4100 95° East 491 565 31,000  Level FlightAware
07:03PM 42.4210 -83.2950 95° East 492 566 31,000  Level FlightAware
07:04PM 42.4140 -83.1880 95° East 493 567 31,000  Level FlightAware
07:04PM 42.4060 -83.0760 95° East 494 568 31,000  Level FlightAware
07:05PM 42.3990 -82.9810 96° East 495 570 31,000  Level FlightAware
07:06PM 42.3910 -82.8630 95° East 496 571 31,000  Level FlightAware
07:06PM 42.3830 -82.7570 96° East 497 572 31,000  Level FlightAware
07:07PM 42.3750 -82.6450 95° East 497 572 31,000  Level FlightAware
07:07PM 42.3720 -82.5330 92° East 498 573 31,000  Level FlightAware
07:08PM 42.3690 -82.4340 92° East 499 574 31,000  Level FlightAware
07:09PM 42.3650 -82.3310 93° East 499 574 31,000  Level FlightAware
07:09PM 42.3600 -82.2040 93° East 498 573 31,000  Level FlightAware
07:10PM 42.3550 -82.0910 93° East 498 573 31,000  Level FlightAware
07:10PM 42.3510 -81.9980 93° East 498 573 31,000  Level FlightAware
07:11PM 42.3460 -81.8900 94° East 499 574 31,000  Level FlightAware
07:11PM 42.3410 -81.7960 94° East 500 575 31,000  Level FlightAware
07:12PM 42.3360 -81.6740 93° East 500 575 31,000  Level FlightAware
07:13PM 42.3310 -81.5620 93° East 499 574 31,000  Level FlightAware
07:13PM 42.3260 -81.4630 94° East 499 574 31,000  Level FlightAware
07:14PM 42.3200 -81.3420 94° East 499 574 31,000  Level FlightAware
07:14PM 42.3150 -81.2370 94° East 499 574 31,000  Level FlightAware
07:15PM 42.3090 -81.1190 94° East 499 574 31,000  Level FlightAware
07:16PM 42.3040 -81.0270 94° East 499 574 31,000  Level FlightAware
07:16PM 42.2960 -80.8770 94° East 499 574 31,000  Level FlightAware
07:17PM 42.2910 -80.7840 94° East 498 573 31,000  Level FlightAware
07:17PM 42.2860 -80.6830 94° East 498 573 31,000  Level FlightAware
07:18PM 42.2790 -80.5610 94° East 498 573 31,000  Level FlightAware
07:19PM 42.2720 -80.4400 94° East 498 573 31,000  Level FlightAware
07:19PM 42.2670 -80.3480 94° East 498 573 31,000  Level FlightAware
07:20PM 42.2600 -80.2300 95° East 497 572 31,000  Level FlightAware
07:21PM 42.2520 -80.0990 95° East 497 572 31,000  Level FlightAware
07:21PM 42.2430 -79.9480 95° East 497 572 31,000  Level FlightAware
07:22PM 42.2350 -79.8240 95° East 497 572 31,000  Level FlightAware
07:23PM 42.2260 -79.7230 97° East 497 572 31,000  Level FlightAware
07:23PM 42.2090 -79.6100 101° East 497 572 31,000  Level FlightAware
07:24PM 42.1900 -79.5090 104° East 498 573 31,000  Level FlightAware
07:24PM 42.1730 -79.4150 104° East 499 574 31,000  Level FlightAware
07:25PM 42.1500 -79.2910 104° East 498 573 31,000  Level FlightAware
07:26PM 42.1290 -79.1850 105° East 499 574 31,000  Level FlightAware
07:26PM 42.1100 -79.0870 105° East 499 574 31,000  Level FlightAware
07:27PM 42.0890 -78.9790 105° East 500 575 31,000  Level FlightAware
07:27PM 42.0700 -78.8770 104° East 500 575 31,000  Level FlightAware
07:28PM 42.0480 -78.7670 105° East 500 575 31,000  Level FlightAware
07:28PM 42.0270 -78.6610 105° East 500 575 31,000  Level FlightAware
07:29PM 42.0070 -78.5580 105° East 500 575 31,000  Level FlightAware
07:30PM 41.9860 -78.4510 105° East 501 577 31,000  Level FlightAware
07:30PM 41.9690 -78.3660 105° East 502 578 31,000  Level FlightAware
07:31PM 41.9410 -78.2250 105° East 503 579 31,000  Level FlightAware
07:31PM 41.9190 -78.1200 106° East 504 580 31,000  Level FlightAware
07:32PM 41.8990 -78.0170 105° East 504 580 31,000  Level FlightAware
07:33PM 41.8810 -77.9300 106° East 504 580 31,000  Level FlightAware
07:33PM 41.8510 -77.7980 107° East 506 582 31,000  Level FlightAware
07:34PM 41.8200 -77.6800 109° East 505 581 31,000  Level FlightAware
07:34PM 41.7970 -77.5940 110° East 506 582 31,000  Level FlightAware
07:35PM 41.7690 -77.4880 109° East 506 582 31,000  Level FlightAware
07:36PM 41.7370 -77.3680 110° East 506 582 31,000  Level FlightAware
07:36PM 41.7150 -77.2870 110° East 507 583 31,000  Level FlightAware
07:37PM 41.6860 -77.1780 110° East 508 585 31,000  Level FlightAware
07:37PM 41.6610 -77.0850 110° East 508 585 31,000  Level FlightAware
07:38PM 41.6300 -76.9720 110° East 508 585 31,000  Level FlightAware
07:38PM 41.6050 -76.8800 110° East 509 586 31,000  Level FlightAware
07:39PM 41.5700 -76.7530 110° East 510 587 31,000  Level FlightAware
07:40PM 41.5376 -76.6333 110° East 510 587 31,000  Level FlightAware ADS-B
07:40PM 41.5130 -76.5430 110° East 511 588 31,000  Level FlightAware
07:41PM 41.4990 -76.4936 111° Southeast 511 588 31,000  Level FlightAware ADS-B
07:41PM 41.4682 -76.3824 110° East 513 590 31,000  Level FlightAware ADS-B
07:42PM 41.4430 -76.2919 110° East 513 590 31,000  Level FlightAware ADS-B
07:42PM 41.4180 -76.2026 110° East 514 592 31,000  Level FlightAware ADS-B
07:43PM 41.3911 -76.1067 110° East 515 593 31,000  Level FlightAware ADS-B
07:43PM 41.3642 -76.0113 111° Southeast 515 593 31,000  Level FlightAware ADS-B
07:44PM 41.3390 -75.9222 111° Southeast 516 594 31,000 -420 Level FlightAware ADS-B
07:44PM 41.3138 -75.8332 111° Southeast 515 593 30,600 -1,860 Descending FlightAware ADS-B
07:45PM 41.2873 -75.7402 111° Southeast 512 589 29,100 -3,420 Descending FlightAware ADS-B
07:45PM 41.2600 -75.6514 112° Southeast 514 592 27,100 -3,660 Descending FlightAware ADS-B
07:46PM 41.2309 -75.5628 114° Southeast 505 581 25,400 -3,120 Descending FlightAware ADS-B
07:46PM 41.2022 -75.4773 114° Southeast 495 570 23,900 -2,280 Descending FlightAware ADS-B
07:47PM 41.1742 -75.3941 114° Southeast 488 562 23,100 -900 Descending FlightAware ADS-B
07:47PM 41.1455 -75.3090 114° Southeast 492 566 23,000 -120 Descending FlightAware ADS-B
07:48PM 41.1169 -75.2245 114° Southeast 492 566 23,000  Level FlightAware ADS-B
07:48PM 41.0887 -75.1412 114° Southeast 491 565 23,000  Level FlightAware ADS-B
07:49PM 41.0601 -75.0573 114° Southeast 489 563 23,000  Level FlightAware ADS-B
07:49PM 41.0320 -74.9747 114° Southeast 489 563 23,000  Level FlightAware ADS-B
07:50PM 41.0133 -74.9187 114° Southeast 490 564 23,000  Level FlightAware ADS-B
07:50PM 40.9949 -74.8431 108° East 490 564 23,000  Level FlightAware ADS-B
07:50PM 40.9902 -74.8139 102° East 489 563 23,000  Level FlightAware ADS-B
07:51PM 40.9801 -74.7234 98° East 488 562 23,000  Level FlightAware ADS-B
07:51PM 40.9695 -74.6259 98° East 488 562 23,000  Level FlightAware ADS-B
07:52PM 40.9655 -74.5887 98° East 489 563 23,000  Level FlightAware ADS-B
07:52PM 40.9597 -74.5358 98° East 489 563 23,000 -960 Level FlightAware ADS-B
07:52PM 40.9492 -74.4407 98° East 486 559 22,200 -2,580 Descending FlightAware ADS-B
07:53PM 40.9371 -74.3325 98° East 473 544 20,100 -2,580 Descending FlightAware ADS-B
07:54PM 40.9271 -74.2432 98° East 434 499 19,200 -1,140 Descending FlightAware ADS-B
07:54PM 40.9194 -74.1759 99° East 380 437 19,000 -360 Descending FlightAware ADS-B
07:54PM 40.9161 -74.1568 103° East 368 423 19,000  Level FlightAware ADS-B
07:54PM 40.9105 -74.1349 109° East 357 411 19,000  Level FlightAware ADS-B
07:55PM 40.9035 -74.1141 114° Southeast 351 404 19,000 -360 Level FlightAware ADS-B
07:55PM 40.8969 -74.0982 119° Southeast 348 400 18,900 -1,500 Descending FlightAware ADS-B
07:55PM 40.8759 -74.0532 122° Southeast 348 400 18,200 -1,740 Descending FlightAware ADS-B
07:55PM 40.8698 -74.0409 123° Southeast 348 400 18,000 -1,560 Descending FlightAware ADS-B
07:56PM 40.8488 -73.9990 124° Southeast 345 397 17,400 -1,560 Descending FlightAware ADS-B
07:56PM 40.8426 -73.9871 125° Southeast 344 396 17,200 -1,500 Descending FlightAware ADS-B
07:56PM 40.8412 -73.9849 130° Southeast 343 395 17,200 -1,380 Level FlightAware ADS-B
07:56PM 40.8323 -73.9721 133° Southeast 342 394 17,000 -1,200 Descending FlightAware ADS-B
07:56PM 40.8304 -73.9699 139° Southeast 340 391 17,000 -1,740 Level FlightAware ADS-B
07:56PM 40.8238 -73.9633 143° Southeast 339 390 16,800 -1,380 Descending FlightAware ADS-B
07:56PM 40.8191 -73.9594 148° Southeast 338 389 16,800 -1,380 Level FlightAware ADS-B
07:56PM 40.8112 -73.9543 154° Southeast 336 387 16,600 -1,500 Descending FlightAware ADS-B
07:56PM 40.8075 -73.9524 159° South 335 386 16,600 -1,440 Level FlightAware ADS-B
07:56PM 40.7927 -73.9477 166° South 332 382 16,300 -1,140 Descending FlightAware ADS-B
07:57PM 40.7417 -73.9503 182° South 326 375 15,800 -480 Descending FlightAware ADS-B
07:57PM 40.6960 -73.9556 185° South 327 376 15,800 60 Level FlightAware ADS-B
07:58PM 40.6501 -73.9608 185° South 327 376 15,900 -600 Climbing FlightAware ADS-B
07:58PM 40.6039 -73.9658 185° South 326 375 15,200 -1,440 Descending FlightAware ADS-B
07:59PM 40.5565 -73.9710 185° South 323 372 14,400 -1,500 Descending FlightAware ADS-B
08:00PM 40.5115 -73.9768 186° South 320 368 13,700 -1,500 Descending FlightAware ADS-B
08:00PM 40.4777 -73.9808 185° South 316 364 13,100 -1,560 Descending FlightAware ADS-B
08:00PM 40.4719 -73.9805 178° South 316 364 13,000 -1,380 Descending FlightAware ADS-B
08:00PM 40.4647 -73.9790 171° South 315 362 12,900 -1,200 Descending FlightAware ADS-B
08:00PM 40.4582 -73.9766 164° South 316 364 12,800 -1,500 Descending FlightAware ADS-B
08:00PM 40.4539 -73.9743 158° South 315 362 12,700 -1,380 Descending FlightAware ADS-B
08:01PM 40.4140 -73.9426 149° Southeast 311 358 12,000 -1,020 Descending FlightAware ADS-B
08:01PM 40.3775 -73.9123 148° Southeast 310 357 11,700 -1,020 Descending FlightAware ADS-B
08:02PM 40.3409 -73.8818 148° Southeast 307 353 11,000 -1,440 Descending FlightAware ADS-B
08:02PM 40.3326 -73.8732 142° Southeast 307 353 10,800 -1,440 Descending FlightAware ADS-B
08:02PM 40.3272 -73.8656 133° Southeast 307 353 10,700 -1,200 Descending FlightAware ADS-B
08:02PM 40.3238 -73.8595 126° Southeast 306 352 10,600 -1,380 Descending FlightAware ADS-B
08:02PM 40.3202 -73.8518 122° Southeast 304 350 10,500 -1,260 Descending FlightAware ADS-B
08:03PM 40.3050 -73.8130 117° Southeast 302 348 10,000 -1,440 Descending FlightAware ADS-B
08:03PM 40.2940 -73.7818 115° Southeast 300 345 9,500 -1,500 Descending FlightAware ADS-B
08:03PM 40.2925 -73.7725 102° East 300 345 9,400 -1,200 Descending FlightAware ADS-B
08:03PM 40.2919 -73.7628 95° East 298 343 9,300 -1,200 Descending FlightAware ADS-B
08:03PM 40.2938 -73.7460 82° East 295 339 9,100 -1,440 Descending FlightAware ADS-B
08:03PM 40.2951 -73.7408 72° East 294 338 9,000 -1,740 Descending FlightAware ADS-B
08:03PM 40.2973 -73.7344 66° East 292 336 8,900 -1,380 Descending FlightAware ADS-B
08:03PM 40.3009 -73.7269 58° Northeast 290 334 8,800 -1,200 Descending FlightAware ADS-B
08:03PM 40.3049 -73.7200 53° Northeast 289 333 8,700 -1,380 Descending FlightAware ADS-B
08:04PM 40.3242 -73.6920 48° Northeast 287 330 8,200 -1,140 Descending FlightAware ADS-B
08:04PM 40.3476 -73.6592 47° Northeast 280 322 7,800 -600 Descending FlightAware ADS-B
08:05PM 40.3614 -73.6396 47° Northeast 280 322 7,800  Level FlightAware ADS-B
08:05PM 40.3754 -73.6198 47° Northeast 280 322 7,800  Level FlightAware ADS-B
08:05PM 40.3890 -73.6010 46° Northeast 279 321 7,800  Level FlightAware ADS-B
08:05PM 40.3982 -73.5921 36° Northeast 278 320 7,800  Level FlightAware ADS-B
08:05PM 40.4161 -73.5792 29° Northeast 278 320 7,800  Level FlightAware ADS-B
08:06PM 40.4333 -73.5677 27° Northeast 277 319 7,800  Level FlightAware ADS-B
08:06PM 40.4530 -73.5548 26° Northeast 277 319 7,800  Level FlightAware ADS-B
08:06PM 40.4705 -73.5434 26° Northeast 278 320 7,800  Level FlightAware ADS-B
08:07PM 40.4899 -73.5303 27° Northeast 276 318 7,800  Level FlightAware ADS-B
08:07PM 40.5072 -73.5186 27° Northeast 277 319 7,800 -240 Level FlightAware ADS-B
08:07PM 40.5243 -73.5071 27° Northeast 278 320 7,700 -780 Descending FlightAware ADS-B
08:07PM 40.5443 -73.4937 27° Northeast 274 315 7,400 -1,380 Descending FlightAware ADS-B
08:08PM 40.5602 -73.4855 21° North 274 315 7,000 -1,440 Descending FlightAware ADS-B
08:08PM 40.5693 -73.4842 North 274 315 6,900 -900 Descending FlightAware ADS-B
08:08PM 40.5774 -73.4842 360° North 271 312 6,800 -1,500 Descending FlightAware ADS-B
08:08PM 40.6064 -73.4864 357° North 269 310 6,200 -1,920 Descending FlightAware ADS-B
08:09PM 40.6530 -73.4880 359° North 265 305 4,900 -2,160 Descending FlightAware
08:09PM 40.6750 -73.4890 358° North 263 303 4,200 -2,400 Descending FlightAware
08:09PM 40.6870 -73.4940 342° North 261 300 3,800 -2,280 Descending FlightAware
08:09PM 40.6930 -73.4980 333° Northwest 260 299 3,600 -1,920 Descending FlightAware
08:10PM 40.7020 -73.5080 320° Northwest 257 296 3,300 -1,500 Descending FlightAware
08:10PM 40.7180 -73.5290 315° West 262 302 2,900 -780 Descending FlightAware
08:10PM 40.7350 -73.5510 316° Northwest 240 276 2,800 -180 Descending FlightAware
08:11PM 40.7500 -73.5720 313° West 222 255 2,800  Level FlightAware
08:11PM 40.7610 -73.5860 316° Northwest 221 254 2,800  Level FlightAware
08:11PM 40.7670 -73.5940 315° West 218 251 2,800  Level FlightAware
08:11PM 40.7760 -73.6170 297° West 199 229 2,800  Level FlightAware
08:11PM 40.7780 -73.6290 282° West 192 221 2,800  Level FlightAware
08:12PM 40.7720 -73.6550 253° West 192 221 2,800 -300 Level FlightAware
08:12PM 40.7620 -73.6780 240° Southwest 194 223 2,600 -720 Descending FlightAware
08:12PM 40.7600 -73.6810 229° Southwest 195 224 2,500 -960 Descending FlightAware
08:12PM 40.7540 -73.6870 217° Southwest 195 224 2,400 -1,080 Descending FlightAware
08:13PM 40.7370 -73.6990 208° Southwest 199 229 2,000 -1,140 Descending FlightAware
08:13PM 40.7170 -73.7120 206° Southwest 185 213 1,600 -840 Descending FlightAware
08:13PM 40.7090 -73.7180 210° Southwest 176 203 1,500 -1,020 Descending FlightAware
08:14PM 40.6970 -73.7280 212° Southwest 162 186 1,100 -1,020 Descending FlightAware
08:14PM 40.6820 -73.7390 209° Southwest 140 161 800 -840 Descending FlightAware
08:14PM 40.6720 -73.7470 211° Southwest 129 148 500 -720 Descending FlightAware
08:15PM 40.6630 -73.7530 207° Southwest 127 146 400 -720 Descending FlightAware
08:15PM 40.6530 -73.7610 211° Southwest 134 154 100 -900 Descending FlightAware
08:15PM 40.6430 -73.7690 211° Southwest 132 152 -360 Descending FlightAware
08:16PM 40.6350 -73.7750 210° Southwest 110 127  Level FlightAware